高雄國際航空站 - 塔台/地面席

METAR RCKH 271130Z 35009KT 320V020 7000 FEW015 SCT035 BKN070 25/19 Q1018 NOSIG RMK A3006=

站台狀態:Offline
最後更新:2020-11-27 19:30:02